createdAt,value
2022-08-21T00:01:48.006Z,5.20
2022-08-21T00:04:22.430Z,5.32
2022-08-21T00:06:51.001Z,5.10
2022-08-21T00:09:20.202Z,4.97
2022-08-21T00:11:48.906Z,4.80
2022-08-21T00:14:17.841Z,5.50
2022-08-21T00:16:46.170Z,5.18
2022-08-21T00:19:14.267Z,4.70
2022-08-21T00:21:44.348Z,4.88
2022-08-21T00:24:12.896Z,4.88
2022-08-21T00:26:41.158Z,4.68
2022-08-21T00:29:09.326Z,4.63
2022-08-21T00:31:37.394Z,4.60
2022-08-21T00:34:05.958Z,5.63
2022-08-21T00:36:34.066Z,4.80
2022-08-21T00:39:03.762Z,5.38
2022-08-21T00:41:37.113Z,5.30
2022-08-21T00:44:06.310Z,4.57
2022-08-21T00:46:34.628Z,5.13
2022-08-21T00:49:02.724Z,5.63
2022-08-21T00:51:38.207Z,6.38
2022-08-21T00:54:18.087Z,5.28
2022-08-21T00:56:48.348Z,5.07
2022-08-21T00:59:18.436Z,5.05
2022-08-21T01:01:46.746Z,5.15
2022-08-21T01:04:15.996Z,4.80
2022-08-21T01:06:44.237Z,5.55
2022-08-21T01:09:13.908Z,5.63
2022-08-21T01:11:43.861Z,5.07
2022-08-21T01:14:13.126Z,4.90
2022-08-21T01:16:42.765Z,5.60
2022-08-21T01:19:11.105Z,5.57
2022-08-21T01:21:41.664Z,5.78
2022-08-21T01:24:13.070Z,5.10
2022-08-21T01:26:41.982Z,5.68
2022-08-21T01:29:16.738Z,5.60
2022-08-21T01:31:44.864Z,5.47
2022-08-21T01:34:16.659Z,5.70
2022-08-21T01:36:47.142Z,6.50
2022-08-21T01:39:16.560Z,6.78
2022-08-21T01:41:45.624Z,6.20
2022-08-21T01:44:13.665Z,6.10
2022-08-21T01:46:41.918Z,6.20
2022-08-21T01:49:10.024Z,5.88
2022-08-21T01:51:38.062Z,6.28
2022-08-21T01:54:07.677Z,6.65
2022-08-21T01:56:39.659Z,6.70
2022-08-21T01:59:08.374Z,6.07
2022-08-21T02:01:36.521Z,6.18
2022-08-21T02:04:05.114Z,6.07
2022-08-21T02:06:33.237Z,6.70
2022-08-21T02:09:01.344Z,6.50
2022-08-21T02:11:30.762Z,6.22
2022-08-21T02:13:58.927Z,5.97
2022-08-21T02:16:27.104Z,6.80
2022-08-21T02:18:55.213Z,6.30
2022-08-21T02:21:23.251Z,6.05
2022-08-21T02:23:51.270Z,5.78
2022-08-21T02:26:19.342Z,5.97
2022-08-21T02:28:49.030Z,5.72
2022-08-21T02:31:17.234Z,6.30
2022-08-21T02:33:45.477Z,6.93
2022-08-21T02:36:14.103Z,6.80
2022-08-21T02:38:44.024Z,6.35
2022-08-21T02:41:15.065Z,5.93
2022-08-21T02:43:44.297Z,6.20
2022-08-21T02:46:17.541Z,6.28
2022-08-21T02:48:45.897Z,5.95
2022-08-21T02:51:15.906Z,6.00
2022-08-21T02:53:44.121Z,5.68
2022-08-21T02:56:14.438Z,6.00
2022-08-21T02:58:45.050Z,5.72
2022-08-21T03:01:15.080Z,5.88
2022-08-21T03:03:45.845Z,6.13
2022-08-21T03:06:16.671Z,6.60
2022-08-21T03:08:46.253Z,6.60
2022-08-21T03:11:14.562Z,6.80
2022-08-21T03:13:43.790Z,5.85
2022-08-21T03:16:12.402Z,6.43
2022-08-21T03:18:41.783Z,5.50
2022-08-21T03:21:09.899Z,5.30
2022-08-21T03:23:40.659Z,5.93
2022-08-21T03:26:09.522Z,5.50
2022-08-21T03:28:37.578Z,5.80
2022-08-21T03:31:06.642Z,5.55
2022-08-21T03:33:35.003Z,5.85
2022-08-21T03:36:07.332Z,5.15
2022-08-21T03:38:36.942Z,5.88
2022-08-21T03:41:06.471Z,5.53
2022-08-21T03:43:36.335Z,6.25
2022-08-21T03:46:06.189Z,6.05
2022-08-21T03:48:34.925Z,5.65
2022-08-21T03:51:04.748Z,6.30
2022-08-21T03:53:32.897Z,6.35
2022-08-21T03:56:00.921Z,6.40
2022-08-21T03:58:30.614Z,7.88
2022-08-21T04:01:01.202Z,7.95
2022-08-21T04:03:30.023Z,8.00
2022-08-21T04:05:58.106Z,7.82
2022-08-21T04:08:27.846Z,8.00
2022-08-21T04:10:59.101Z,9.10
2022-08-21T04:13:29.028Z,9.90
2022-08-21T04:15:57.381Z,10.63
2022-08-21T04:18:25.707Z,11.52
2022-08-21T04:20:55.690Z,11.18
2022-08-21T04:23:24.819Z,11.77
2022-08-21T04:25:56.597Z,11.20
2022-08-21T04:28:28.838Z,10.68
2022-08-21T04:30:58.014Z,11.00
2022-08-21T04:33:26.379Z,10.73
2022-08-21T04:35:54.709Z,10.23
2022-08-21T04:38:23.061Z,10.77
2022-08-21T04:40:52.118Z,10.43
2022-08-21T04:43:24.318Z,10.88
2022-08-21T04:45:53.476Z,10.50
2022-08-21T04:48:25.150Z,10.90
2022-08-21T04:50:57.299Z,10.73
2022-08-21T04:53:28.401Z,9.40
2022-08-21T04:55:58.472Z,10.23
2022-08-21T04:58:29.042Z,10.35
2022-08-21T05:01:00.227Z,10.52
2022-08-21T05:03:29.148Z,9.75
2022-08-21T05:05:57.331Z,10.05
2022-08-21T05:08:29.698Z,9.77
2022-08-21T05:11:00.521Z,10.50
2022-08-21T05:13:31.813Z,8.93
2022-08-21T05:16:00.027Z,9.10
2022-08-21T05:18:28.049Z,9.25
2022-08-21T05:20:56.132Z,9.43
2022-08-21T05:23:24.282Z,9.18
2022-08-21T05:25:52.545Z,8.80
2022-08-21T05:28:20.918Z,8.57
2022-08-21T05:30:50.495Z,8.23
2022-08-21T05:33:18.552Z,8.13
2022-08-21T05:35:46.586Z,8.27
2022-08-21T05:38:17.826Z,8.82
2022-08-21T05:40:47.130Z,9.07
2022-08-21T05:43:15.596Z,8.80
2022-08-21T05:45:44.382Z,7.68
2022-08-21T05:48:16.873Z,8.07
2022-08-21T05:50:46.209Z,7.97
2022-08-21T05:53:14.698Z,8.43
2022-08-21T05:55:46.258Z,8.13
2022-08-21T05:58:15.558Z,7.95
2022-08-21T06:00:43.971Z,7.50
2022-08-21T06:03:19.013Z,8.02
2022-08-21T06:05:47.512Z,7.78
2022-08-21T06:08:15.923Z,7.65
2022-08-21T06:10:44.209Z,7.63
2022-08-21T06:13:12.770Z,7.32
2022-08-21T06:15:40.985Z,7.50
2022-08-21T06:18:09.314Z,7.40
2022-08-21T06:20:39.370Z,7.43
2022-08-21T06:23:07.554Z,7.13
2022-08-21T06:25:36.103Z,7.78
2022-08-21T06:28:06.570Z,7.45
2022-08-21T06:30:35.253Z,7.10
2022-08-21T06:33:03.930Z,7.47
2022-08-21T06:35:32.650Z,8.07
2022-08-21T06:38:02.135Z,7.40
2022-08-21T06:40:34.866Z,7.50
2022-08-21T06:43:08.661Z,7.60
2022-08-21T06:45:37.432Z,7.43
2022-08-21T06:48:06.206Z,7.22
2022-08-21T06:50:34.934Z,7.40
2022-08-21T06:53:07.143Z,6.78
2022-08-21T06:55:35.334Z,7.00
2022-08-21T06:58:03.365Z,6.75
2022-08-21T07:00:31.869Z,6.43
2022-08-21T07:03:00.546Z,6.30
2022-08-21T07:05:30.558Z,6.68
2022-08-21T07:07:59.205Z,6.57
2022-08-21T07:10:29.009Z,6.22
2022-08-21T07:13:00.461Z,6.28
2022-08-21T07:15:30.326Z,5.35
2022-08-21T07:17:59.217Z,6.70
2022-08-21T07:20:27.873Z,5.05
2022-08-21T07:22:56.291Z,4.80
2022-08-21T07:25:24.452Z,4.75
2022-08-21T07:27:53.990Z,3.78
2022-08-21T07:30:22.337Z,4.75
2022-08-21T07:32:50.960Z,3.92
2022-08-21T07:35:19.871Z,4.60
2022-08-21T07:37:48.320Z,4.10
2022-08-21T07:40:16.934Z,4.85
2022-08-21T07:42:46.138Z,4.40
2022-08-21T07:45:16.469Z,4.30
2022-08-21T07:47:45.633Z,3.97
2022-08-21T07:50:14.390Z,4.55
2022-08-21T07:52:42.880Z,4.20
2022-08-21T07:55:13.285Z,4.30
2022-08-21T07:57:41.436Z,4.28
2022-08-21T08:00:12.816Z,4.18
2022-08-21T08:02:43.137Z,4.20
2022-08-21T08:05:13.119Z,3.40
2022-08-21T08:07:42.036Z,3.65
2022-08-21T08:10:11.617Z,3.78
2022-08-21T08:12:41.693Z,3.58
2022-08-21T08:15:12.749Z,3.53
2022-08-21T08:17:42.238Z,3.80
2022-08-21T08:20:12.561Z,3.60
2022-08-21T08:22:42.265Z,3.20
2022-08-21T08:25:11.936Z,3.60
2022-08-21T08:27:40.668Z,3.30
2022-08-21T08:30:11.906Z,3.53
2022-08-21T08:32:40.696Z,2.92
2022-08-21T08:35:11.750Z,3.40
2022-08-21T08:37:42.134Z,4.00
2022-08-21T08:40:14.748Z,3.78
2022-08-21T08:42:43.699Z,3.25
2022-08-21T08:45:15.651Z,3.05
2022-08-21T08:47:48.058Z,3.42
2022-08-21T08:50:22.436Z,3.38
2022-08-21T08:52:59.812Z,3.38
2022-08-21T08:55:34.313Z,3.53
2022-08-21T08:58:03.587Z,3.30
2022-08-21T09:00:33.941Z,2.88
2022-08-21T09:03:04.945Z,2.80
2022-08-21T09:05:44.078Z,3.35
2022-08-21T09:08:44.645Z,3.28
2022-08-21T09:11:20.534Z,3.17
2022-08-21T09:13:56.221Z,3.42
2022-08-21T09:16:38.243Z,2.65
2022-08-21T09:19:16.972Z,3.00
2022-08-21T09:22:03.794Z,3.08
2022-08-21T09:24:35.661Z,2.70
2022-08-21T09:27:08.784Z,2.58
2022-08-21T09:29:40.466Z,2.95
2022-08-21T09:32:18.639Z,2.90
2022-08-21T09:34:58.623Z,2.70
2022-08-21T09:37:29.934Z,2.40
2022-08-21T09:39:59.536Z,2.65
2022-08-21T09:42:29.956Z,2.85
2022-08-21T09:45:11.301Z,2.92
2022-08-21T09:47:39.541Z,2.28
2022-08-21T09:50:15.160Z,2.50
2022-08-21T09:52:52.354Z,2.60
2022-08-21T09:55:49.720Z,2.30
2022-08-21T09:58:19.711Z,2.72
2022-08-21T10:00:58.185Z,2.53
2022-08-21T10:03:26.527Z,2.72
2022-08-21T10:05:58.603Z,2.22
2022-08-21T10:09:16.931Z,2.67
2022-08-21T10:12:30.914Z,2.20
2022-08-21T10:16:13.659Z,2.50
2022-08-21T10:31:08.710Z,2.30
2022-08-21T10:34:15.428Z,2.00
2022-08-21T10:37:10.464Z,2.10
2022-08-21T10:43:29.384Z,2.03
2022-08-21T10:46:12.388Z,2.22
2022-08-21T10:48:50.428Z,2.58
2022-08-21T10:51:32.910Z,1.92
2022-08-21T10:58:01.938Z,1.85
2022-08-21T11:07:32.265Z,2.05
2022-08-21T11:10:31.487Z,1.90
2022-08-21T11:16:54.122Z,2.17
2022-08-21T11:19:29.584Z,2.03
2022-08-21T11:22:19.314Z,2.03
2022-08-21T11:25:01.697Z,2.03
2022-08-21T11:27:36.936Z,1.98
2022-08-21T11:30:07.573Z,1.80
2022-08-21T11:32:58.031Z,1.70
2022-08-21T11:35:35.726Z,2.20
2022-08-21T11:38:18.748Z,2.00
2022-08-21T11:41:04.382Z,1.88
2022-08-21T11:43:40.713Z,1.85
2022-08-21T11:46:28.231Z,1.88
2022-08-21T11:49:14.348Z,1.88
2022-08-21T11:51:48.194Z,1.75
2022-08-21T11:54:26.294Z,1.90
2022-08-21T11:56:59.905Z,2.05
2022-08-21T11:59:40.750Z,1.70
2022-08-21T12:02:15.674Z,1.77
2022-08-21T12:04:51.589Z,1.70
2022-08-21T12:07:33.018Z,1.70
2022-08-21T12:10:06.533Z,1.67
2022-08-21T12:12:37.238Z,1.70
2022-08-21T12:15:27.751Z,1.90
2022-08-21T12:17:59.662Z,1.83
2022-08-21T12:21:06.457Z,1.90
2022-08-21T12:23:45.402Z,1.75
2022-08-21T12:26:26.986Z,2.00
2022-08-21T12:29:17.553Z,1.90
2022-08-21T12:31:55.335Z,1.42
2022-08-21T12:34:26.833Z,2.08
2022-08-21T12:37:00.834Z,2.15
2022-08-21T12:39:32.114Z,1.80
2022-08-21T12:42:07.355Z,1.83
2022-08-21T12:44:42.289Z,1.80
2022-08-21T12:47:17.322Z,1.90
2022-08-21T12:49:55.503Z,1.90
2022-08-21T12:52:26.253Z,1.85
2022-08-21T12:54:54.312Z,2.00
2022-08-21T12:57:26.506Z,1.70
2022-08-21T12:59:58.472Z,1.95
2022-08-21T13:02:31.526Z,2.00
2022-08-21T13:05:43.767Z,1.80
2022-08-21T13:08:14.591Z,2.60
2022-08-21T13:10:43.826Z,1.98
2022-08-21T13:13:25.030Z,2.10
2022-08-21T13:16:00.613Z,2.13
2022-08-21T13:18:30.845Z,2.40
2022-08-21T13:21:09.959Z,2.08
2022-08-21T13:23:38.061Z,2.35
2022-08-21T13:26:18.415Z,2.35
2022-08-21T13:28:49.305Z,2.00
2022-08-21T13:31:22.435Z,2.30
2022-08-21T13:33:51.454Z,2.00
2022-08-21T13:36:27.707Z,1.92
2022-08-21T13:38:56.389Z,2.30
2022-08-21T13:41:28.440Z,1.88
2022-08-21T13:44:03.471Z,1.88
2022-08-21T13:46:34.642Z,1.92
2022-08-21T13:49:04.006Z,2.00
2022-08-21T13:51:33.613Z,1.88
2022-08-21T13:54:01.794Z,1.70
2022-08-21T13:56:32.350Z,2.05
2022-08-21T13:59:03.806Z,1.77
2022-08-21T14:01:35.125Z,2.58
2022-08-21T14:04:05.755Z,2.90
2022-08-21T14:06:37.934Z,2.60
2022-08-21T14:09:12.674Z,2.53
2022-08-21T14:11:42.342Z,2.75
2022-08-21T14:14:27.078Z,2.70
2022-08-21T14:16:57.407Z,2.80
2022-08-21T14:19:36.120Z,2.85
2022-08-21T14:22:42.913Z,2.45
2022-08-21T14:25:14.963Z,2.30
2022-08-21T14:27:51.063Z,2.53
2022-08-21T14:30:23.028Z,2.40
2022-08-21T14:32:51.995Z,2.40
2022-08-21T14:35:23.779Z,2.70
2022-08-21T14:37:53.409Z,2.72
2022-08-21T14:40:34.239Z,2.70
2022-08-21T14:43:03.229Z,2.80
2022-08-21T14:45:33.860Z,2.75
2022-08-21T14:48:08.805Z,2.70
2022-08-21T14:50:36.929Z,2.25
2022-08-21T14:53:11.010Z,2.15
2022-08-21T14:55:54.854Z,2.70
2022-08-21T14:58:25.984Z,2.55
2022-08-21T15:00:59.105Z,2.63
2022-08-21T15:03:27.740Z,2.53
2022-08-21T15:05:55.815Z,2.92
2022-08-21T15:08:23.881Z,2.60
2022-08-21T15:11:11.860Z,2.55
2022-08-21T15:14:15.529Z,2.38
2022-08-21T15:16:46.527Z,2.47
2022-08-21T15:19:16.254Z,2.85
2022-08-21T15:21:49.502Z,2.45
2022-08-21T15:25:10.150Z,2.75
2022-08-21T15:27:39.224Z,3.15
2022-08-21T15:30:18.398Z,2.38
2022-08-21T15:32:50.896Z,2.70
2022-08-21T15:35:20.423Z,2.70
2022-08-21T15:37:48.484Z,2.70
2022-08-21T15:40:17.695Z,2.90
2022-08-21T15:42:47.478Z,2.50
2022-08-21T15:45:16.474Z,2.97
2022-08-21T15:47:46.690Z,2.70
2022-08-21T15:50:16.113Z,2.72
2022-08-21T15:52:44.206Z,2.58
2022-08-21T15:55:13.090Z,2.85
2022-08-21T15:57:58.113Z,3.00
2022-08-21T16:00:27.259Z,2.90
2022-08-21T16:02:58.090Z,2.67
2022-08-21T16:05:28.194Z,2.85
2022-08-21T16:08:18.044Z,3.10
2022-08-21T16:10:46.104Z,2.15
2022-08-21T16:13:20.646Z,2.53
2022-08-21T16:15:48.698Z,2.45
2022-08-21T16:18:16.855Z,2.45
2022-08-21T16:20:46.638Z,2.30
2022-08-21T16:23:14.895Z,2.40
2022-08-21T16:25:43.811Z,2.55
2022-08-21T16:28:15.326Z,2.45
2022-08-21T16:30:45.526Z,2.78
2022-08-21T16:33:22.294Z,2.25
2022-08-21T16:35:52.257Z,2.50
2022-08-21T16:38:20.795Z,3.03
2022-08-21T16:40:49.424Z,2.60
2022-08-21T16:43:18.136Z,2.50
2022-08-21T16:45:47.102Z,3.10
2022-08-21T16:48:15.241Z,2.28
2022-08-21T16:50:46.882Z,2.80
2022-08-21T16:53:19.868Z,2.75
2022-08-21T16:55:48.336Z,2.72
2022-08-21T16:58:41.341Z,2.58
2022-08-21T17:01:11.830Z,2.22
2022-08-21T17:03:42.564Z,2.33
2022-08-21T17:06:11.286Z,2.78
2022-08-21T17:08:40.829Z,2.53
2022-08-21T17:11:32.497Z,2.50
2022-08-21T17:14:09.182Z,2.20
2022-08-21T17:16:38.269Z,2.47
2022-08-21T17:19:08.200Z,2.65
2022-08-21T17:21:37.106Z,2.38
2022-08-21T17:24:07.230Z,2.30
2022-08-21T17:26:35.686Z,2.42
2022-08-21T17:29:09.783Z,2.70
2022-08-21T17:31:38.586Z,2.40
2022-08-21T17:34:07.857Z,2.33
2022-08-21T17:36:35.914Z,2.53
2022-08-21T17:39:06.963Z,2.60
2022-08-21T17:41:35.498Z,2.70
2022-08-21T17:44:09.424Z,2.30
2022-08-21T17:46:38.887Z,2.58
2022-08-21T17:49:08.411Z,2.33
2022-08-21T17:51:37.019Z,2.33
2022-08-21T17:54:06.853Z,2.72
2022-08-21T17:56:38.626Z,2.80
2022-08-21T17:59:07.990Z,2.67
2022-08-21T18:01:40.094Z,2.28
2022-08-21T18:04:08.132Z,2.67
2022-08-21T18:06:36.376Z,2.30
2022-08-21T18:09:07.179Z,2.55
2022-08-21T18:11:37.481Z,2.63
2022-08-21T18:14:07.928Z,2.50
2022-08-21T18:16:37.950Z,2.45
2022-08-21T18:19:10.097Z,2.42
2022-08-21T18:21:38.821Z,2.83
2022-08-21T18:24:08.642Z,2.63
2022-08-21T18:26:39.953Z,2.58
2022-08-21T18:29:10.709Z,2.50
2022-08-21T18:31:41.045Z,2.47
2022-08-21T18:34:19.595Z,2.35
2022-08-21T18:36:49.811Z,2.80
2022-08-21T18:39:35.880Z,2.70
2022-08-21T18:42:07.066Z,2.92
2022-08-21T18:44:35.637Z,2.85
2022-08-21T18:47:06.790Z,2.58
2022-08-21T18:49:34.935Z,3.08
2022-08-21T18:52:03.409Z,2.85
2022-08-21T18:54:33.932Z,2.47
2022-08-21T18:57:08.439Z,2.67
2022-08-21T18:59:38.102Z,3.22
2022-08-21T19:04:56.610Z,2.33
2022-08-21T19:07:24.933Z,3.05
2022-08-21T19:10:24.499Z,2.85
2022-08-21T19:12:46.737Z,3.15
2022-08-21T19:15:17.427Z,2.67
2022-08-21T19:20:37.079Z,2.95
2022-08-21T19:23:07.872Z,2.85
2022-08-21T19:25:40.146Z,2.40
2022-08-21T19:28:13.340Z,3.08
2022-08-21T19:30:46.019Z,2.60
2022-08-21T19:33:23.339Z,2.58
2022-08-21T19:35:52.766Z,2.70
2022-08-21T19:38:21.578Z,2.50
2022-08-21T19:40:52.272Z,2.53
2022-08-21T19:43:23.145Z,2.60
2022-08-21T19:45:55.465Z,2.72
2022-08-21T19:48:24.024Z,2.80
2022-08-21T19:50:52.403Z,2.80
2022-08-21T19:53:21.824Z,2.72
2022-08-21T19:55:51.263Z,3.25
2022-08-21T19:58:36.015Z,2.92
2022-08-21T20:01:12.463Z,2.45
2022-08-21T20:03:54.033Z,2.60
2022-08-21T20:06:24.448Z,2.90
2022-08-21T20:08:54.986Z,2.58
2022-08-21T20:11:31.330Z,2.90
2022-08-21T20:14:00.975Z,2.70
2022-08-21T20:16:29.671Z,2.70
2022-08-21T20:18:57.950Z,2.88
2022-08-21T20:21:26.051Z,3.33
2022-08-21T20:23:54.410Z,2.58
2022-08-21T20:26:24.410Z,3.40
2022-08-21T20:28:53.498Z,3.03
2022-08-21T20:31:23.568Z,2.67
2022-08-21T20:33:53.189Z,2.53
2022-08-21T20:36:22.626Z,3.38
2022-08-21T20:38:51.829Z,2.90
2022-08-21T20:41:30.979Z,2.88
2022-08-21T20:44:02.118Z,3.00
2022-08-21T20:46:33.515Z,2.78
2022-08-21T20:49:02.107Z,2.70
2022-08-21T20:51:34.499Z,2.90
2022-08-21T20:54:09.314Z,3.20
2022-08-21T20:56:44.838Z,2.72
2022-08-21T20:59:24.905Z,2.78
2022-08-21T21:01:55.323Z,3.00
2022-08-21T21:04:34.849Z,2.78
2022-08-21T21:07:15.496Z,2.72
2022-08-21T21:09:47.937Z,3.65
2022-08-21T21:12:27.917Z,3.60
2022-08-21T21:15:06.135Z,3.70
2022-08-21T21:17:39.564Z,4.13
2022-08-21T21:20:12.327Z,4.43
2022-08-21T21:22:45.948Z,3.95
2022-08-21T21:25:18.059Z,3.45
2022-08-21T21:27:51.851Z,3.65
2022-08-21T21:30:24.390Z,3.15
2022-08-21T21:32:54.491Z,3.00
2022-08-21T21:35:32.957Z,3.53
2022-08-21T21:38:12.870Z,3.20
2022-08-21T21:40:49.723Z,3.40
2022-08-21T21:43:33.493Z,3.47
2022-08-21T21:46:16.807Z,3.00
2022-08-21T21:49:05.793Z,3.25
2022-08-21T21:51:46.492Z,2.80
2022-08-21T21:54:34.561Z,2.80
2022-08-21T21:57:15.191Z,2.72
2022-08-21T21:59:54.651Z,2.75
2022-08-21T22:02:35.094Z,2.92
2022-08-21T22:05:10.886Z,3.38
2022-08-21T22:07:44.839Z,3.95
2022-08-21T22:10:30.474Z,2.83
2022-08-21T22:13:11.012Z,2.88
2022-08-21T22:15:41.328Z,2.67
2022-08-21T22:18:16.615Z,3.08
2022-08-21T22:20:52.582Z,3.63
2022-08-21T22:23:23.840Z,3.13
2022-08-21T22:25:59.931Z,3.25
2022-08-21T22:28:29.359Z,3.30
2022-08-21T22:31:12.601Z,3.20
2022-08-21T22:34:00.247Z,3.30
2022-08-21T22:36:32.054Z,3.13
2022-08-21T22:39:00.773Z,2.88
2022-08-21T22:41:32.194Z,3.10
2022-08-21T22:44:03.812Z,2.80
2022-08-21T22:46:36.147Z,3.35
2022-08-21T22:49:09.924Z,3.33
2022-08-21T22:51:40.487Z,3.65
2022-08-21T22:54:16.774Z,3.33
2022-08-21T22:57:01.451Z,3.50
2022-08-21T22:59:34.790Z,3.35
2022-08-21T23:02:11.409Z,3.20
2022-08-21T23:04:49.659Z,3.63
2022-08-21T23:07:34.469Z,2.75
2022-08-21T23:10:04.274Z,3.70
2022-08-21T23:12:36.794Z,3.03
2022-08-21T23:15:10.042Z,3.28
2022-08-21T23:20:43.813Z,3.35
2022-08-21T23:23:18.438Z,3.38
2022-08-21T23:26:01.946Z,3.20
2022-08-21T23:28:48.440Z,3.53
2022-08-21T23:31:25.944Z,3.40
2022-08-21T23:34:07.675Z,3.65
2022-08-21T23:37:09.946Z,3.42
2022-08-21T23:39:54.293Z,3.67
2022-08-21T23:42:39.712Z,3.63
2022-08-21T23:45:24.388Z,3.92
2022-08-21T23:48:11.012Z,3.63
2022-08-21T23:50:53.090Z,3.85
2022-08-21T23:53:33.832Z,3.70
2022-08-21T23:56:17.629Z,3.30
2022-08-21T23:58:56.626Z,3.20
